createdAt,value
2023-03-14T00:01:25.351Z,98698.34
2023-03-14T00:03:58.056Z,98703.75
2023-03-14T00:06:32.338Z,98699.22
2023-03-14T00:09:04.856Z,98704.81
2023-03-14T00:11:37.364Z,98691.03
2023-03-14T00:14:09.996Z,98684.25
2023-03-14T00:16:42.541Z,98701.94
2023-03-14T00:19:15.618Z,98695.28
2023-03-14T00:21:48.266Z,98717.34
2023-03-14T00:24:20.847Z,98704.81
2023-03-14T00:26:53.416Z,98723.47
2023-03-14T00:29:25.911Z,98723.53
2023-03-14T00:31:58.492Z,98737.56
2023-03-14T00:34:34.785Z,98739.13
2023-03-14T00:37:07.345Z,98729.47
2023-03-14T00:39:39.940Z,98730.06
2023-03-14T00:42:12.532Z,98728.84
2023-03-14T00:44:45.110Z,98729.53
2023-03-14T00:47:17.645Z,98731.31
2023-03-14T00:49:50.179Z,98736.59
2023-03-14T00:52:22.781Z,98740.13
2023-03-14T00:54:55.368Z,98744.72
2023-03-14T00:57:28.048Z,98737.16
2023-03-14T01:00:00.505Z,98731.09
2023-03-14T01:02:33.077Z,98727.13
2023-03-14T01:05:06.072Z,98715.38
2023-03-14T01:07:38.793Z,98729.56
2023-03-14T01:10:11.679Z,98722.78
2023-03-14T01:12:44.225Z,98727.84
2023-03-14T01:15:16.859Z,98726.69
2023-03-14T01:17:49.499Z,98723.66
2023-03-14T01:20:22.088Z,98712.69
2023-03-14T01:22:54.893Z,98711.97
2023-03-14T01:25:27.698Z,98720.75
2023-03-14T01:28:01.732Z,98718.47
2023-03-14T01:30:34.338Z,98714.25
2023-03-14T01:33:07.359Z,98709.63
2023-03-14T01:35:39.883Z,98705.25
2023-03-14T01:38:12.437Z,98698.38
2023-03-14T01:40:45.689Z,98697.19
2023-03-14T01:43:21.705Z,98688.28
2023-03-14T01:46:06.264Z,98689.41
2023-03-14T01:48:45.926Z,98683.94
2023-03-14T01:51:41.812Z,98688.47
2023-03-14T01:54:34.576Z,98676.94
2023-03-14T01:57:32.828Z,98674.28
2023-03-14T02:00:14.358Z,98675.19
2023-03-14T02:02:52.618Z,98673.06
2023-03-14T02:05:31.322Z,98668.81
2023-03-14T02:08:10.512Z,98669.94
2023-03-14T02:10:49.994Z,98662.16
2023-03-14T02:13:23.411Z,98663.22
2023-03-14T02:15:56.063Z,98660.44
2023-03-14T02:18:28.762Z,98672.50
2023-03-14T02:21:25.503Z,98663.63
2023-03-14T02:24:09.840Z,98667.63
2023-03-14T02:27:12.766Z,98666.38
2023-03-14T02:29:53.408Z,98672.84
2023-03-14T02:32:30.971Z,98660.81
2023-03-14T02:35:14.366Z,98645.91
2023-03-14T02:37:49.215Z,98642.97
2023-03-14T02:40:22.713Z,98631.44
2023-03-14T02:42:55.523Z,98642.66
2023-03-14T02:45:57.387Z,98650.25
2023-03-14T02:48:37.107Z,98642.81
2023-03-14T02:51:10.255Z,98629.72
2023-03-14T02:53:43.697Z,98644.38
2023-03-14T02:56:16.353Z,98641.91
2023-03-14T02:58:48.915Z,98648.38
2023-03-14T03:01:21.460Z,98648.09
2023-03-14T03:03:54.324Z,98649.31
2023-03-14T03:06:27.418Z,98650.78
2023-03-14T03:09:00.004Z,98653.88
2023-03-14T03:11:32.852Z,98657.13
2023-03-14T03:14:05.430Z,98647.34
2023-03-14T03:16:38.070Z,98652.88
2023-03-14T03:19:10.605Z,98647.56
2023-03-14T03:21:43.131Z,98641.06
2023-03-14T03:24:15.761Z,98640.88
2023-03-14T03:26:48.371Z,98631.44
2023-03-14T03:29:20.969Z,98633.81
2023-03-14T03:31:54.092Z,98636.00
2023-03-14T03:34:28.841Z,98639.28
2023-03-14T03:37:01.387Z,98633.19
2023-03-14T03:39:33.887Z,98629.69
2023-03-14T03:42:06.380Z,98634.44
2023-03-14T03:44:39.055Z,98630.09
2023-03-14T03:47:11.752Z,98628.28
2023-03-14T03:49:44.349Z,98626.56
2023-03-14T03:52:17.124Z,98619.28
2023-03-14T03:54:49.645Z,98629.84
2023-03-14T03:57:22.235Z,98626.16
2023-03-14T03:59:54.756Z,98621.78
2023-03-14T04:02:27.491Z,98621.31
2023-03-14T04:05:00.180Z,98613.50
2023-03-14T04:07:34.240Z,98612.13
2023-03-14T04:10:07.081Z,98612.06
2023-03-14T04:12:39.704Z,98617.53
2023-03-14T04:15:12.523Z,98613.59
2023-03-14T04:17:45.282Z,98620.81
2023-03-14T04:20:17.982Z,98615.75
2023-03-14T04:22:50.524Z,98609.88
2023-03-14T04:25:23.139Z,98610.22
2023-03-14T04:27:55.694Z,98621.22
2023-03-14T04:30:28.651Z,98616.03
2023-03-14T04:33:01.329Z,98605.59
2023-03-14T04:35:34.551Z,98614.47
2023-03-14T04:38:07.143Z,98602.78
2023-03-14T04:40:44.723Z,98604.50
2023-03-14T04:43:17.203Z,98597.34
2023-03-14T04:45:49.898Z,98596.63
2023-03-14T04:48:23.294Z,98597.59
2023-03-14T04:50:56.894Z,98606.13
2023-03-14T04:53:31.839Z,98593.31
2023-03-14T04:56:05.855Z,98605.41
2023-03-14T04:58:38.402Z,98611.59
2023-03-14T05:01:11.276Z,98610.84
2023-03-14T05:03:43.800Z,98606.53
2023-03-14T05:06:16.371Z,98616.69
2023-03-14T05:08:48.884Z,98614.09
2023-03-14T05:11:21.441Z,98607.34
2023-03-14T05:13:54.035Z,98602.00
2023-03-14T05:16:26.724Z,98603.81
2023-03-14T05:18:59.336Z,98602.84
2023-03-14T05:21:31.893Z,98605.53
2023-03-14T05:24:04.789Z,98602.22
2023-03-14T05:26:37.340Z,98604.38
2023-03-14T05:29:09.805Z,98597.09
2023-03-14T05:31:42.396Z,98592.78
2023-03-14T05:34:14.958Z,98591.84
2023-03-14T05:36:47.841Z,98584.19
2023-03-14T05:39:20.344Z,98585.47
2023-03-14T05:41:54.876Z,98590.00
2023-03-14T05:44:27.382Z,98581.94
2023-03-14T05:47:00.013Z,98587.28
2023-03-14T05:49:32.898Z,98586.25
2023-03-14T05:52:05.575Z,98576.50
2023-03-14T05:54:38.163Z,98573.16
2023-03-14T05:57:10.951Z,98584.50
2023-03-14T05:59:43.488Z,98570.59
2023-03-14T06:02:16.092Z,98572.66
2023-03-14T06:04:48.718Z,98569.88
2023-03-14T06:07:21.483Z,98565.72
2023-03-14T06:09:54.024Z,98567.94
2023-03-14T06:12:26.670Z,98571.59
2023-03-14T06:14:59.153Z,98565.81
2023-03-14T06:17:31.674Z,98570.44
2023-03-14T06:20:04.642Z,98564.72
2023-03-14T06:22:37.406Z,98569.56
2023-03-14T06:25:10.541Z,98571.78
2023-03-14T06:27:43.080Z,98574.59
2023-03-14T06:30:15.972Z,98565.47
2023-03-14T06:32:48.600Z,98568.97
2023-03-14T06:35:21.137Z,98572.50
2023-03-14T06:37:53.709Z,98577.34
2023-03-14T06:40:26.358Z,98579.13
2023-03-14T06:42:58.881Z,98586.22
2023-03-14T06:45:31.467Z,98581.03
2023-03-14T06:48:05.380Z,98589.22
2023-03-14T06:50:37.926Z,98583.41
2023-03-14T06:53:10.566Z,98593.91
2023-03-14T06:55:44.244Z,98591.16
2023-03-14T06:58:17.342Z,98587.09
2023-03-14T07:00:49.832Z,98591.00
2023-03-14T07:03:22.418Z,98594.53
2023-03-14T07:05:55.187Z,98603.06
2023-03-14T07:08:27.711Z,98602.78
2023-03-14T07:11:00.291Z,98608.00
2023-03-14T07:13:32.878Z,98602.19
2023-03-14T07:16:06.791Z,98613.44
2023-03-14T07:18:39.474Z,98618.84
2023-03-14T07:21:12.167Z,98623.28
2023-03-14T07:23:44.678Z,98632.31
2023-03-14T07:26:17.425Z,98640.94
2023-03-14T07:28:50.021Z,98673.34
2023-03-14T07:31:22.681Z,98734.19
2023-03-14T07:33:55.221Z,98739.75
2023-03-14T07:36:27.764Z,98743.06
2023-03-14T07:39:00.220Z,98757.13
2023-03-14T07:41:33.652Z,98764.41
2023-03-14T07:44:06.207Z,98789.69
2023-03-14T07:46:38.894Z,98793.72
2023-03-14T07:49:11.544Z,98798.38
2023-03-14T07:51:45.092Z,98818.00
2023-03-14T07:54:19.650Z,98815.56
2023-03-14T07:56:53.409Z,98823.22
2023-03-14T07:59:25.932Z,98836.88
2023-03-14T08:01:58.612Z,98853.16
2023-03-14T08:04:31.138Z,98859.09
2023-03-14T08:07:03.688Z,98858.25
2023-03-14T08:09:36.278Z,98871.78
2023-03-14T08:12:09.215Z,98879.31
2023-03-14T08:14:41.675Z,98885.31
2023-03-14T08:17:14.162Z,98893.41
2023-03-14T08:19:46.630Z,98911.81
2023-03-14T08:22:20.223Z,98910.50
2023-03-14T08:24:52.963Z,98932.41
2023-03-14T08:27:25.611Z,98945.47
2023-03-14T08:29:58.576Z,98928.19
2023-03-14T08:32:31.854Z,98947.16
2023-03-14T08:35:06.501Z,98965.69
2023-03-14T08:37:39.061Z,98989.81
2023-03-14T08:40:12.764Z,98978.66
2023-03-14T08:42:46.428Z,98991.75
2023-03-14T08:45:19.102Z,99012.56
2023-03-14T08:47:51.671Z,98999.63
2023-03-14T08:50:25.165Z,99020.28
2023-03-14T08:53:00.829Z,99029.09
2023-03-14T08:55:33.701Z,99026.81
2023-03-14T08:58:06.241Z,99044.50
2023-03-14T09:00:38.925Z,99045.50
2023-03-14T09:03:11.540Z,99052.91
2023-03-14T09:05:44.188Z,99063.91
2023-03-14T09:08:16.754Z,99063.22
2023-03-14T09:10:49.330Z,99071.09
2023-03-14T09:13:21.868Z,99100.09
2023-03-14T09:15:58.459Z,99092.31
2023-03-14T09:18:31.194Z,99104.66
2023-03-14T09:21:04.134Z,99102.88
2023-03-14T09:23:36.700Z,99115.88
2023-03-14T09:26:09.281Z,99133.75
2023-03-14T09:28:41.755Z,99131.09
2023-03-14T09:31:15.070Z,99138.09
2023-03-14T09:33:47.655Z,99153.53
2023-03-14T09:36:20.180Z,99173.78
2023-03-14T09:38:52.757Z,99170.63
2023-03-14T09:41:25.210Z,99219.47
2023-03-14T09:44:07.346Z,99243.63
2023-03-14T09:46:43.803Z,99243.00
2023-03-14T09:49:28.406Z,99263.19
2023-03-14T09:52:12.580Z,99274.78
2023-03-14T09:55:08.478Z,99297.25
2023-03-14T09:57:43.952Z,99309.16
2023-03-14T10:00:24.252Z,99309.78
2023-03-14T10:03:25.715Z,99326.22
2023-03-14T10:05:58.826Z,99346.13
2023-03-14T10:08:31.368Z,99357.31
2023-03-14T10:11:04.110Z,99362.19
2023-03-14T10:14:07.950Z,99378.25
2023-03-14T10:16:47.067Z,99390.06
2023-03-14T10:19:19.778Z,99409.94
2023-03-14T10:21:55.155Z,99420.97
2023-03-14T10:24:32.951Z,99425.84
2023-03-14T10:27:20.069Z,99454.19
2023-03-14T10:30:09.036Z,99445.78
2023-03-14T10:32:47.273Z,99466.88
2023-03-14T10:35:23.893Z,99468.38
2023-03-14T10:38:05.152Z,99478.47
2023-03-14T10:40:42.514Z,99473.25
2023-03-14T10:43:22.985Z,99500.72
2023-03-14T10:45:59.869Z,99505.31
2023-03-14T10:48:38.403Z,99524.13
2023-03-14T10:51:25.214Z,99529.97
2023-03-14T10:54:19.983Z,99541.41
2023-03-14T10:57:01.660Z,99554.59
2023-03-14T10:59:42.270Z,99576.09
2023-03-14T11:02:32.786Z,99592.09
2023-03-14T11:05:32.854Z,99599.03
2023-03-14T11:08:45.569Z,99603.19
2023-03-14T11:11:27.953Z,99619.69
2023-03-14T11:14:03.590Z,99613.09
2023-03-14T11:17:01.225Z,99630.94
2023-03-14T11:19:47.337Z,99629.13
2023-03-14T11:22:32.441Z,99633.22
2023-03-14T11:25:22.617Z,99658.72
2023-03-14T11:28:30.799Z,99658.13
2023-03-14T11:31:06.266Z,99670.84
2023-03-14T11:34:01.926Z,99671.28
2023-03-14T11:36:42.869Z,99692.09
2023-03-14T11:39:21.180Z,99708.22
2023-03-14T11:41:59.334Z,99730.69
2023-03-14T11:44:39.165Z,99761.94
2023-03-14T11:47:30.704Z,99760.38
2023-03-14T11:50:16.262Z,99742.38
2023-03-14T11:52:59.824Z,99743.66
2023-03-14T11:55:39.338Z,99748.31
2023-03-14T11:58:21.283Z,99766.47
2023-03-14T12:00:57.597Z,99768.81
2023-03-14T12:03:45.504Z,99772.00
2023-03-14T12:06:26.851Z,99793.28
2023-03-14T12:09:02.753Z,99785.38
2023-03-14T12:12:03.502Z,99791.22
2023-03-14T12:14:45.437Z,99804.31
2023-03-14T12:17:24.661Z,99822.19
2023-03-14T12:20:15.504Z,99819.50
2023-03-14T12:22:55.204Z,99831.97
2023-03-14T12:25:32.770Z,99829.72
2023-03-14T12:28:20.167Z,99832.97
2023-03-14T12:30:52.883Z,99849.31
2023-03-14T12:33:31.518Z,99845.88
2023-03-14T12:36:12.088Z,99842.22
2023-03-14T12:38:56.641Z,99849.50
2023-03-14T12:41:45.336Z,99863.00
2023-03-14T12:44:47.921Z,99857.66
2023-03-14T12:47:20.502Z,99857.06
2023-03-14T12:49:58.365Z,99871.84
2023-03-14T12:53:13.487Z,99880.63
2023-03-14T12:56:18.640Z,99863.66
2023-03-14T12:59:23.460Z,99862.78
2023-03-14T13:02:03.336Z,99873.22
2023-03-14T13:04:47.686Z,99874.41
2023-03-14T13:07:40.306Z,99884.13
2023-03-14T13:10:12.724Z,99904.41
2023-03-14T13:13:04.001Z,99908.16
2023-03-14T13:15:42.720Z,99909.06
2023-03-14T13:18:20.469Z,99909.84
2023-03-14T13:20:57.793Z,99918.22
2023-03-14T13:23:34.448Z,99920.38
2023-03-14T13:26:16.015Z,99926.97
2023-03-14T13:28:48.564Z,99935.13
2023-03-14T13:31:27.390Z,99938.50
2023-03-14T13:34:11.077Z,99952.09
2023-03-14T13:36:43.762Z,99967.53
2023-03-14T13:39:29.980Z,99961.50
2023-03-14T13:42:03.374Z,99951.94
2023-03-14T13:44:40.691Z,99958.69
2023-03-14T13:47:20.930Z,99975.72
2023-03-14T13:49:54.895Z,99991.84
2023-03-14T13:52:36.346Z,99993.84
2023-03-14T13:55:19.695Z,100002.38
2023-03-14T13:57:58.222Z,99996.84
2023-03-14T14:00:30.864Z,100014.13
2023-03-14T14:03:03.863Z,100040.63
2023-03-14T14:05:38.527Z,100029.06
2023-03-14T14:08:14.008Z,100057.19
2023-03-14T14:10:50.178Z,100062.69
2023-03-14T14:13:25.742Z,100079.94
2023-03-14T14:16:03.130Z,100076.84
2023-03-14T14:18:36.898Z,100111.63
2023-03-14T14:21:11.484Z,100120.66
2023-03-14T14:23:44.535Z,100106.00
2023-03-14T14:26:21.241Z,100129.44
2023-03-14T14:29:06.403Z,100128.09
2023-03-14T14:31:38.997Z,100142.19
2023-03-14T14:34:20.884Z,100142.97
2023-03-14T14:36:53.577Z,100154.75
2023-03-14T14:39:29.956Z,100160.75
2023-03-14T14:42:02.635Z,100157.94
2023-03-14T14:44:37.359Z,100165.31
2023-03-14T14:47:20.980Z,100180.53
2023-03-14T14:49:59.502Z,100186.41
2023-03-14T14:52:47.278Z,100189.50
2023-03-14T14:55:21.255Z,100187.19
2023-03-14T14:57:57.613Z,100200.06
2023-03-14T15:00:31.266Z,100213.72
2023-03-14T15:03:04.164Z,100224.41
2023-03-14T15:05:37.970Z,100228.75
2023-03-14T15:08:14.522Z,100242.81
2023-03-14T15:10:47.072Z,100254.34
2023-03-14T15:13:19.632Z,100247.91
2023-03-14T15:15:57.100Z,100254.78
2023-03-14T15:18:31.492Z,100265.03
2023-03-14T15:21:04.525Z,100272.31
2023-03-14T15:23:37.632Z,100285.22
2023-03-14T15:26:17.153Z,100282.47
2023-03-14T15:28:50.172Z,100292.66
2023-03-14T15:31:22.895Z,100304.59
2023-03-14T15:33:55.467Z,100310.13
2023-03-14T15:36:35.003Z,100320.81
2023-03-14T15:39:08.416Z,100325.13
2023-03-14T15:41:41.077Z,100315.56
2023-03-14T15:44:13.637Z,100322.63
2023-03-14T15:46:46.202Z,100324.31
2023-03-14T15:49:18.772Z,100330.47
2023-03-14T15:51:51.323Z,100336.47
2023-03-14T15:54:23.901Z,100344.56
2023-03-14T15:56:57.323Z,100353.72
2023-03-14T15:59:30.131Z,100361.41
2023-03-14T16:02:02.686Z,100364.81
2023-03-14T16:04:35.483Z,100374.00
2023-03-14T16:07:08.148Z,100373.06
2023-03-14T16:09:40.707Z,100384.47
2023-03-14T16:12:13.248Z,100380.22
2023-03-14T16:14:48.598Z,100382.63
2023-03-14T16:17:21.365Z,100393.94
2023-03-14T16:19:53.956Z,100397.69
2023-03-14T16:22:27.264Z,100406.22
2023-03-14T16:24:59.778Z,100412.44
2023-03-14T16:27:33.023Z,100426.38
2023-03-14T16:30:06.898Z,100440.53
2023-03-14T16:32:39.536Z,100430.00
2023-03-14T16:35:12.212Z,100447.63
2023-03-14T16:37:44.719Z,100440.56
2023-03-14T16:40:17.352Z,100455.56
2023-03-14T16:43:14.563Z,100465.28
2023-03-14T16:45:43.163Z,100460.78
2023-03-14T16:48:15.721Z,100476.72
2023-03-14T16:50:51.260Z,100466.19
2023-03-14T16:53:25.123Z,100471.25
2023-03-14T16:56:00.266Z,100471.41
2023-03-14T16:58:32.912Z,100478.41
2023-03-14T17:01:18.418Z,100481.94
2023-03-14T17:03:52.067Z,100491.75
2023-03-14T17:06:28.202Z,100482.00
2023-03-14T17:09:03.497Z,100494.22
2023-03-14T17:11:36.885Z,100495.34
2023-03-14T17:14:09.384Z,100501.25
2023-03-14T17:16:41.919Z,100509.34
2023-03-14T17:19:14.469Z,100513.44
2023-03-14T17:21:47.054Z,100511.75
2023-03-14T17:24:19.944Z,100526.81
2023-03-14T17:26:52.476Z,100532.94
2023-03-14T17:29:25.024Z,100537.28
2023-03-14T17:31:57.602Z,100546.00
2023-03-14T17:34:30.178Z,100549.59
2023-03-14T17:37:02.744Z,100559.22
2023-03-14T17:39:35.669Z,100558.41
2023-03-14T17:42:08.459Z,100575.00
2023-03-14T17:44:41.806Z,100570.72
2023-03-14T17:47:14.419Z,100578.56
2023-03-14T17:49:46.958Z,100594.31
2023-03-14T17:52:19.938Z,100596.09
2023-03-14T17:54:52.409Z,100597.94
2023-03-14T17:57:25.048Z,100603.16
2023-03-14T17:59:57.611Z,100610.09
2023-03-14T18:02:30.235Z,100618.00
2023-03-14T18:05:03.677Z,100620.66
2023-03-14T18:07:38.467Z,100625.03
2023-03-14T18:10:11.993Z,100625.03
2023-03-14T18:12:44.737Z,100626.81
2023-03-14T18:15:17.316Z,100635.59
2023-03-14T18:17:49.918Z,100639.06
2023-03-14T18:20:22.524Z,100638.22
2023-03-14T18:22:56.087Z,100645.19
2023-03-14T18:25:29.048Z,100649.56
2023-03-14T18:28:01.593Z,100657.47
2023-03-14T18:30:34.076Z,100664.47
2023-03-14T18:33:06.702Z,100669.69
2023-03-14T18:35:39.365Z,100673.19
2023-03-14T18:38:11.847Z,100678.44
2023-03-14T18:40:44.411Z,100682.81
2023-03-14T18:43:16.869Z,100693.28
2023-03-14T18:45:49.372Z,100694.16
2023-03-14T18:48:24.984Z,100703.72
2023-03-14T18:50:59.042Z,100694.09
2023-03-14T18:53:35.692Z,100708.91
2023-03-14T18:56:08.798Z,100714.13
2023-03-14T18:58:41.684Z,100708.88
2023-03-14T19:01:17.471Z,100716.72
2023-03-14T19:03:50.084Z,100714.09
2023-03-14T19:06:24.865Z,100718.41
2023-03-14T19:08:57.368Z,100729.72
2023-03-14T19:11:30.001Z,100727.06
2023-03-14T19:14:03.778Z,100729.59
2023-03-14T19:16:36.515Z,100732.13
2023-03-14T19:19:09.058Z,100728.66
2023-03-14T19:21:41.688Z,100732.03
2023-03-14T19:24:19.690Z,100744.19
2023-03-14T19:26:54.235Z,100742.41
2023-03-14T19:29:27.365Z,100744.16
2023-03-14T19:31:59.978Z,100741.50
2023-03-14T19:34:32.542Z,100744.06
2023-03-14T19:37:05.074Z,100746.59
2023-03-14T19:39:37.772Z,100754.41
2023-03-14T19:42:10.317Z,100751.75
2023-03-14T19:44:42.979Z,100759.56
2023-03-14T19:47:15.464Z,100759.56
2023-03-14T19:49:49.012Z,100770.03
2023-03-14T19:52:21.804Z,100771.75
2023-03-14T19:54:54.775Z,100768.19
2023-03-14T19:57:27.284Z,100775.16
2023-03-14T19:59:59.807Z,100774.28
2023-03-14T20:02:32.572Z,100777.72
2023-03-14T20:05:08.183Z,100770.75
2023-03-14T20:07:41.835Z,100770.66
2023-03-14T20:10:22.628Z,100776.75
2023-03-14T20:13:09.099Z,100777.50
2023-03-14T20:15:44.781Z,100777.50
2023-03-14T20:18:17.362Z,100776.47
2023-03-14T20:20:50.465Z,100786.16
2023-03-14T20:23:23.117Z,100788.66
2023-03-14T20:25:58.833Z,100788.56
2023-03-14T20:28:32.052Z,100792.97
2023-03-14T20:31:07.770Z,100791.38
2023-03-14T20:33:42.517Z,100794.75
2023-03-14T20:36:15.229Z,100793.97
2023-03-14T20:38:47.754Z,100813.13
2023-03-14T20:41:20.369Z,100808.78
2023-03-14T20:43:53.079Z,100807.94
2023-03-14T20:46:25.672Z,100806.22
2023-03-14T20:48:58.250Z,100809.69
2023-03-14T20:51:30.877Z,100818.28
2023-03-14T20:54:03.737Z,100815.72
2023-03-14T20:56:36.322Z,100818.47
2023-03-14T20:59:09.098Z,100822.75
2023-03-14T21:04:31.830Z,100823.13
2023-03-14T21:07:04.369Z,100830.97
2023-03-14T21:09:36.908Z,100831.09
2023-03-14T21:12:09.381Z,100828.41
2023-03-14T21:14:42.016Z,100820.63
2023-03-14T21:17:14.529Z,100814.59
2023-03-14T21:19:46.999Z,100812.94
2023-03-14T21:22:19.470Z,100813.59
2023-03-14T21:24:56.360Z,100812.88
2023-03-14T21:27:28.844Z,100819.75
2023-03-14T21:30:01.312Z,100821.31
2023-03-14T21:32:34.168Z,100829.16
2023-03-14T21:35:07.153Z,100833.47
2023-03-14T21:37:39.736Z,100830.06
2023-03-14T21:40:14.432Z,100834.44
2023-03-14T21:42:47.121Z,100829.25
2023-03-14T21:45:27.623Z,100834.59
2023-03-14T21:48:02.332Z,100830.25
2023-03-14T21:50:34.847Z,100841.53
2023-03-14T21:53:07.426Z,100837.28
2023-03-14T21:55:44.356Z,100832.97
2023-03-14T21:58:17.127Z,100839.13
2023-03-14T22:00:50.050Z,100835.59
2023-03-14T22:03:25.310Z,100833.88
2023-03-14T22:05:57.817Z,100839.97
2023-03-14T22:08:30.670Z,100835.50
2023-03-14T22:11:07.598Z,100843.56
2023-03-14T22:13:40.382Z,100844.34
2023-03-14T22:16:13.184Z,100855.78
2023-03-14T22:18:46.191Z,100844.41
2023-03-14T22:21:18.735Z,100848.88
2023-03-14T22:23:51.205Z,100864.53
2023-03-14T22:26:23.708Z,100863.66
2023-03-14T22:28:56.181Z,100871.69
2023-03-14T22:31:28.998Z,100869.94
2023-03-14T22:34:01.544Z,100872.50
2023-03-14T22:36:34.056Z,100879.59
2023-03-14T22:39:06.818Z,100881.41
2023-03-14T22:41:39.325Z,100892.75
2023-03-14T22:44:11.795Z,100892.78
2023-03-14T22:46:44.343Z,100893.81
2023-03-14T22:49:17.955Z,100912.19
2023-03-14T22:51:50.445Z,100905.94
2023-03-14T22:54:22.992Z,100916.56
2023-03-14T22:56:55.615Z,100923.59
2023-03-14T22:59:28.189Z,100939.78
2023-03-14T23:02:00.737Z,100929.09
2023-03-14T23:04:33.363Z,100946.19
2023-03-14T23:07:05.930Z,100948.50
2023-03-14T23:09:39.680Z,100966.66
2023-03-14T23:12:17.424Z,100937.25
2023-03-14T23:14:49.898Z,100936.22
2023-03-14T23:17:25.416Z,100929.03
2023-03-14T23:19:59.288Z,100933.50
2023-03-14T23:22:33.443Z,100932.97
2023-03-14T23:25:06.848Z,100932.03
2023-03-14T23:27:39.361Z,100939.28
2023-03-14T23:30:17.108Z,100941.84
2023-03-14T23:32:49.801Z,100941.81
2023-03-14T23:35:22.384Z,100946.25
2023-03-14T23:37:54.894Z,100945.41
2023-03-14T23:40:27.416Z,100949.13
2023-03-14T23:42:59.890Z,100956.75
2023-03-14T23:45:32.356Z,100954.19
2023-03-14T23:48:05.724Z,100949.97
2023-03-14T23:50:38.255Z,100963.84
2023-03-14T23:53:10.743Z,100961.03
2023-03-14T23:55:43.399Z,100949.13
2023-03-14T23:58:15.912Z,100949.16
